sensor_id;sensor_type;location;lat;lon;timestamp;P1;durP1;ratioP1;P2;durP2;ratioP2
62711;SDS011;48772;55.586;37.730;2023-03-22T00:00:26;10.38;;;6.07;;
62711;SDS011;48772;55.586;37.730;2023-03-22T00:02:56;7.75;;;5.07;;
62711;SDS011;48772;55.586;37.730;2023-03-22T00:05:22;12.50;;;6.57;;
62711;SDS011;48772;55.586;37.730;2023-03-22T00:07:47;11.40;;;6.70;;
62711;SDS011;48772;55.586;37.730;2023-03-22T00:10:18;12.50;;;7.70;;
62711;SDS011;48772;55.586;37.730;2023-03-22T00:12:44;15.05;;;7.30;;
62711;SDS011;48772;55.586;37.730;2023-03-22T00:15:11;10.18;;;5.78;;
62711;SDS011;48772;55.586;37.730;2023-03-22T00:17:36;12.20;;;6.22;;
62711;SDS011;48772;55.586;37.730;2023-03-22T00:20:03;11.90;;;6.30;;
62711;SDS011;48772;55.586;37.730;2023-03-22T00:22:31;11.27;;;6.80;;
62711;SDS011;48772;55.586;37.730;2023-03-22T00:24:57;13.52;;;6.88;;
62711;SDS011;48772;55.586;37.730;2023-03-22T00:27:23;14.00;;;7.28;;
62711;SDS011;48772;55.586;37.730;2023-03-22T00:29:52;10.93;;;5.90;;
62711;SDS011;48772;55.586;37.730;2023-03-22T00:32:18;12.57;;;6.85;;
62711;SDS011;48772;55.586;37.730;2023-03-22T00:34:43;10.90;;;6.53;;
62711;SDS011;48772;55.586;37.730;2023-03-22T00:37:09;14.13;;;7.55;;
62711;SDS011;48772;55.586;37.730;2023-03-22T00:39:35;13.23;;;7.28;;
62711;SDS011;48772;55.586;37.730;2023-03-22T00:42:02;13.10;;;7.10;;
62711;SDS011;48772;55.586;37.730;2023-03-22T00:44:29;10.55;;;6.05;;
62711;SDS011;48772;55.586;37.730;2023-03-22T00:46:55;16.65;;;7.63;;
62711;SDS011;48772;55.586;37.730;2023-03-22T00:49:20;15.45;;;7.40;;
62711;SDS011;48772;55.586;37.730;2023-03-22T00:51:46;18.05;;;7.88;;
62711;SDS011;48772;55.586;37.730;2023-03-22T00:54:12;14.75;;;7.40;;
62711;SDS011;48772;55.586;37.730;2023-03-22T00:56:40;15.80;;;7.43;;
62711;SDS011;48772;55.586;37.730;2023-03-22T00:59:13;16.17;;;7.82;;
62711;SDS011;48772;55.586;37.730;2023-03-22T01:01:40;8.38;;;5.57;;
62711;SDS011;48772;55.586;37.730;2023-03-22T01:04:06;10.63;;;5.88;;
62711;SDS011;48772;55.586;37.730;2023-03-22T01:06:32;14.98;;;7.80;;
62711;SDS011;48772;55.586;37.730;2023-03-22T01:08:58;11.23;;;5.70;;
62711;SDS011;48772;55.586;37.730;2023-03-22T01:11:24;12.15;;;5.55;;
62711;SDS011;48772;55.586;37.730;2023-03-22T01:13:50;15.20;;;7.30;;
62711;SDS011;48772;55.586;37.730;2023-03-22T01:16:16;11.13;;;5.35;;
62711;SDS011;48772;55.586;37.730;2023-03-22T01:18:42;10.73;;;5.53;;
62711;SDS011;48772;55.586;37.730;2023-03-22T01:21:09;13.10;;;6.85;;
62711;SDS011;48772;55.586;37.730;2023-03-22T01:23:35;17.52;;;7.60;;
62711;SDS011;48772;55.586;37.730;2023-03-22T01:26:02;9.45;;;5.57;;
62711;SDS011;48772;55.586;37.730;2023-03-22T01:28:28;12.30;;;6.30;;
62711;SDS011;48772;55.586;37.730;2023-03-22T01:30:54;11.80;;;5.70;;
62711;SDS011;48772;55.586;37.730;2023-03-22T01:33:20;11.13;;;5.55;;
62711;SDS011;48772;55.586;37.730;2023-03-22T01:35:46;15.70;;;7.78;;
62711;SDS011;48772;55.586;37.730;2023-03-22T01:38:12;10.75;;;5.20;;
62711;SDS011;48772;55.586;37.730;2023-03-22T01:40:47;13.45;;;6.40;;
62711;SDS011;48772;55.586;37.730;2023-03-22T01:43:14;16.27;;;7.00;;
62711;SDS011;48772;55.586;37.730;2023-03-22T01:45:48;12.73;;;7.38;;
62711;SDS011;48772;55.586;37.730;2023-03-22T01:50:47;13.73;;;5.80;;
62711;SDS011;48772;55.586;37.730;2023-03-22T01:53:25;12.07;;;7.18;;
62711;SDS011;48772;55.586;37.730;2023-03-22T01:55:52;17.10;;;8.18;;
62711;SDS011;48772;55.586;37.730;2023-03-22T01:58:26;13.77;;;7.13;;
62711;SDS011;48772;55.586;37.730;2023-03-22T02:00:56;15.80;;;7.43;;
62711;SDS011;48772;55.586;37.730;2023-03-22T02:03:49;15.75;;;7.20;;
62711;SDS011;48772;55.586;37.730;2023-03-22T02:06:20;16.60;;;8.32;;
62711;SDS011;48772;55.586;37.730;2023-03-22T02:08:51;16.00;;;7.40;;
62711;SDS011;48772;55.586;37.730;2023-03-22T02:11:20;15.38;;;7.38;;
62711;SDS011;48772;55.586;37.730;2023-03-22T02:25:46;14.23;;;7.30;;
62711;SDS011;48772;55.586;37.730;2023-03-22T02:28:37;13.93;;;7.22;;
62711;SDS011;48772;55.586;37.730;2023-03-22T02:42:40;13.15;;;6.18;;
62711;SDS011;48772;55.586;37.730;2023-03-22T02:45:19;9.18;;;5.07;;
62711;SDS011;48772;55.586;37.730;2023-03-22T02:50:43;11.15;;;5.75;;
62711;SDS011;48772;55.586;37.730;2023-03-22T02:58:44;9.38;;;5.45;;
62711;SDS011;48772;55.586;37.730;2023-03-22T03:01:27;9.23;;;5.28;;
62711;SDS011;48772;55.586;37.730;2023-03-22T03:03:58;11.93;;;5.95;;
62711;SDS011;48772;55.586;37.730;2023-03-22T03:06:31;7.68;;;4.63;;
62711;SDS011;48772;55.586;37.730;2023-03-22T03:09:04;9.43;;;5.00;;
62711;SDS011;48772;55.586;37.730;2023-03-22T03:11:31;9.93;;;5.53;;
62711;SDS011;48772;55.586;37.730;2023-03-22T03:13:57;9.45;;;6.07;;
62711;SDS011;48772;55.586;37.730;2023-03-22T03:16:27;9.05;;;5.97;;
62711;SDS011;48772;55.586;37.730;2023-03-22T03:18:59;10.32;;;6.45;;
62711;SDS011;48772;55.586;37.730;2023-03-22T03:24:16;11.80;;;5.75;;
62711;SDS011;48772;55.586;37.730;2023-03-22T03:27:05;11.02;;;6.30;;
62711;SDS011;48772;55.586;37.730;2023-03-22T03:40:09;9.60;;;5.95;;
62711;SDS011;48772;55.586;37.730;2023-03-22T03:42:56;13.15;;;6.03;;
62711;SDS011;48772;55.586;37.730;2023-03-22T03:45:26;9.95;;;5.40;;
62711;SDS011;48772;55.586;37.730;2023-03-22T03:47:59;11.05;;;5.65;;
62711;SDS011;48772;55.586;37.730;2023-03-22T03:50:27;8.93;;;5.28;;
62711;SDS011;48772;55.586;37.730;2023-03-22T03:52:54;9.70;;;4.72;;
62711;SDS011;48772;55.586;37.730;2023-03-22T03:55:21;4.80;;;3.40;;
62711;SDS011;48772;55.586;37.730;2023-03-22T03:57:48;7.03;;;4.40;;
62711;SDS011;48772;55.586;37.730;2023-03-22T04:00:14;7.35;;;3.42;;
62711;SDS011;48772;55.586;37.730;2023-03-22T04:02:47;8.60;;;3.90;;
62711;SDS011;48772;55.586;37.730;2023-03-22T04:05:33;4.68;;;3.33;;
62711;SDS011;48772;55.586;37.730;2023-03-22T04:07:59;5.35;;;3.53;;
62711;SDS011;48772;55.586;37.730;2023-03-22T04:10:25;4.63;;;3.03;;
62711;SDS011;48772;55.586;37.730;2023-03-22T04:12:51;6.05;;;3.63;;
62711;SDS011;48772;55.586;37.730;2023-03-22T04:15:16;6.95;;;3.97;;
62711;SDS011;48772;55.586;37.730;2023-03-22T04:17:47;10.10;;;3.30;;
62711;SDS011;48772;55.586;37.730;2023-03-22T04:20:14;5.70;;;3.22;;
62711;SDS011;48772;55.586;37.730;2023-03-22T04:22:40;8.13;;;4.10;;
62711;SDS011;48772;55.586;37.730;2023-03-22T04:25:07;6.50;;;3.95;;
62711;SDS011;48772;55.586;37.730;2023-03-22T04:27:43;9.05;;;4.80;;
62711;SDS011;48772;55.586;37.730;2023-03-22T04:30:12;10.73;;;4.75;;
62711;SDS011;48772;55.586;37.730;2023-03-22T04:32:59;8.05;;;4.47;;
62711;SDS011;48772;55.586;37.730;2023-03-22T04:35:41;6.88;;;3.45;;
62711;SDS011;48772;55.586;37.730;2023-03-22T04:38:07;4.57;;;3.10;;
62711;SDS011;48772;55.586;37.730;2023-03-22T04:40:34;6.78;;;4.30;;
62711;SDS011;48772;55.586;37.730;2023-03-22T04:43:16;11.38;;;4.13;;
62711;SDS011;48772;55.586;37.730;2023-03-22T04:46:02;6.35;;;4.00;;
62711;SDS011;48772;55.586;37.730;2023-03-22T04:48:37;7.35;;;3.95;;
62711;SDS011;48772;55.586;37.730;2023-03-22T04:51:05;6.55;;;4.10;;
62711;SDS011;48772;55.586;37.730;2023-03-22T04:53:38;6.35;;;4.32;;
62711;SDS011;48772;55.586;37.730;2023-03-22T04:56:06;6.60;;;4.90;;
62711;SDS011;48772;55.586;37.730;2023-03-22T04:58:37;6.80;;;4.43;;
62711;SDS011;48772;55.586;37.730;2023-03-22T05:01:05;6.80;;;3.78;;
62711;SDS011;48772;55.586;37.730;2023-03-22T05:03:34;6.07;;;3.83;;
62711;SDS011;48772;55.586;37.730;2023-03-22T05:06:01;11.40;;;4.63;;
62711;SDS011;48772;55.586;37.730;2023-03-22T05:08:39;8.25;;;4.55;;
62711;SDS011;48772;55.586;37.730;2023-03-22T05:11:06;7.88;;;5.05;;
62711;SDS011;48772;55.586;37.730;2023-03-22T05:13:34;7.15;;;4.60;;
62711;SDS011;48772;55.586;37.730;2023-03-22T05:16:02;8.82;;;4.70;;
62711;SDS011;48772;55.586;37.730;2023-03-22T05:18:36;7.40;;;4.72;;
62711;SDS011;48772;55.586;37.730;2023-03-22T05:21:10;10.02;;;5.30;;
62711;SDS011;48772;55.586;37.730;2023-03-22T05:23:43;12.57;;;5.97;;
62711;SDS011;48772;55.586;37.730;2023-03-22T05:26:10;10.35;;;5.72;;
62711;SDS011;48772;55.586;37.730;2023-03-22T05:28:41;9.07;;;5.35;;
62711;SDS011;48772;55.586;37.730;2023-03-22T05:31:12;8.50;;;5.15;;
62711;SDS011;48772;55.586;37.730;2023-03-22T05:33:59;9.15;;;4.78;;
62711;SDS011;48772;55.586;37.730;2023-03-22T05:36:28;7.07;;;4.38;;
62711;SDS011;48772;55.586;37.730;2023-03-22T05:39:07;11.48;;;5.05;;
62711;SDS011;48772;55.586;37.730;2023-03-22T05:41:33;11.35;;;5.80;;
62711;SDS011;48772;55.586;37.730;2023-03-22T05:43:59;11.35;;;5.65;;
62711;SDS011;48772;55.586;37.730;2023-03-22T05:46:26;7.40;;;5.15;;
62711;SDS011;48772;55.586;37.730;2023-03-22T05:49:14;7.63;;;5.40;;
62711;SDS011;48772;55.586;37.730;2023-03-22T05:51:40;10.10;;;5.90;;
62711;SDS011;48772;55.586;37.730;2023-03-22T05:54:08;8.10;;;5.72;;
62711;SDS011;48772;55.586;37.730;2023-03-22T05:56:39;8.50;;;6.38;;
62711;SDS011;48772;55.586;37.730;2023-03-22T05:59:05;7.75;;;6.15;;
62711;SDS011;48772;55.586;37.730;2023-03-22T06:01:31;7.95;;;6.22;;
62711;SDS011;48772;55.586;37.730;2023-03-22T06:04:26;9.27;;;6.60;;
62711;SDS011;48772;55.586;37.730;2023-03-22T06:06:59;12.63;;;7.07;;
62711;SDS011;48772;55.586;37.730;2023-03-22T06:09:40;7.82;;;6.50;;
62711;SDS011;48772;55.586;37.730;2023-03-22T06:12:09;9.23;;;7.25;;
62711;SDS011;48772;55.586;37.730;2023-03-22T06:14:36;11.60;;;6.78;;
62711;SDS011;48772;55.586;37.730;2023-03-22T06:17:12;12.15;;;6.47;;
62711;SDS011;48772;55.586;37.730;2023-03-22T06:19:38;11.00;;;6.93;;
62711;SDS011;48772;55.586;37.730;2023-03-22T06:22:05;8.40;;;6.15;;
62711;SDS011;48772;55.586;37.730;2023-03-22T06:24:34;8.43;;;6.78;;
62711;SDS011;48772;55.586;37.730;2023-03-22T06:27:01;11.02;;;7.88;;
62711;SDS011;48772;55.586;37.730;2023-03-22T06:29:27;9.90;;;6.80;;
62711;SDS011;48772;55.586;37.730;2023-03-22T06:31:56;9.93;;;7.47;;
62711;SDS011;48772;55.586;37.730;2023-03-22T06:34:21;9.55;;;7.38;;
62711;SDS011;48772;55.586;37.730;2023-03-22T06:36:47;10.75;;;8.13;;
62711;SDS011;48772;55.586;37.730;2023-03-22T06:39:34;8.07;;;6.57;;
62711;SDS011;48772;55.586;37.730;2023-03-22T06:42:00;9.82;;;7.38;;
62711;SDS011;48772;55.586;37.730;2023-03-22T06:44:26;12.57;;;7.38;;
62711;SDS011;48772;55.586;37.730;2023-03-22T06:47:21;12.65;;;7.25;;
62711;SDS011;48772;55.586;37.730;2023-03-22T06:50:07;9.20;;;6.60;;
62711;SDS011;48772;55.586;37.730;2023-03-22T06:53:00;8.88;;;6.63;;
62711;SDS011;48772;55.586;37.730;2023-03-22T06:55:26;8.82;;;7.10;;
62711;SDS011;48772;55.586;37.730;2023-03-22T06:57:52;9.23;;;6.70;;
62711;SDS011;48772;55.586;37.730;2023-03-22T07:00:18;10.13;;;6.55;;
62711;SDS011;48772;55.586;37.730;2023-03-22T07:02:44;8.68;;;7.03;;
62711;SDS011;48772;55.586;37.730;2023-03-22T07:05:25;9.30;;;6.68;;
62711;SDS011;48772;55.586;37.730;2023-03-22T07:07:51;8.77;;;6.35;;
62711;SDS011;48772;55.586;37.730;2023-03-22T07:10:17;7.65;;;6.18;;
62711;SDS011;48772;55.586;37.730;2023-03-22T07:12:42;7.53;;;6.18;;
62711;SDS011;48772;55.586;37.730;2023-03-22T07:15:12;11.20;;;7.07;;
62711;SDS011;48772;55.586;37.730;2023-03-22T07:17:47;8.13;;;6.15;;
62711;SDS011;48772;55.586;37.730;2023-03-22T07:20:13;7.18;;;6.20;;
62711;SDS011;48772;55.586;37.730;2023-03-22T07:22:43;8.27;;;6.35;;
62711;SDS011;48772;55.586;37.730;2023-03-22T07:25:10;8.55;;;6.22;;
62711;SDS011;48772;55.586;37.730;2023-03-22T07:27:36;6.07;;;5.32;;
62711;SDS011;48772;55.586;37.730;2023-03-22T07:30:03;6.53;;;5.47;;
62711;SDS011;48772;55.586;37.730;2023-03-22T07:32:32;6.10;;;5.50;;
62711;SDS011;48772;55.586;37.730;2023-03-22T07:35:08;9.32;;;5.80;;
62711;SDS011;48772;55.586;37.730;2023-03-22T07:37:37;7.78;;;5.78;;
62711;SDS011;48772;55.586;37.730;2023-03-22T07:40:10;6.07;;;5.47;;
62711;SDS011;48772;55.586;37.730;2023-03-22T07:42:38;6.22;;;5.50;;
62711;SDS011;48772;55.586;37.730;2023-03-22T07:45:35;5.20;;;4.70;;
62711;SDS011;48772;55.586;37.730;2023-03-22T07:48:20;5.07;;;4.55;;
62711;SDS011;48772;55.586;37.730;2023-03-22T07:51:13;11.90;;;4.40;;
62711;SDS011;48772;55.586;37.730;2023-03-22T07:53:39;4.78;;;4.00;;
62711;SDS011;48772;55.586;37.730;2023-03-22T07:56:05;7.00;;;4.97;;
62711;SDS011;48772;55.586;37.730;2023-03-22T07:58:31;4.45;;;3.85;;
62711;SDS011;48772;55.586;37.730;2023-03-22T08:01:02;4.30;;;3.80;;
62711;SDS011;48772;55.586;37.730;2023-03-22T08:03:48;4.60;;;4.00;;
62711;SDS011;48772;55.586;37.730;2023-03-22T08:06:34;3.75;;;3.25;;
62711;SDS011;48772;55.586;37.730;2023-03-22T08:09:04;4.25;;;3.15;;
62711;SDS011;48772;55.586;37.730;2023-03-22T08:11:32;4.03;;;3.40;;
62711;SDS011;48772;55.586;37.730;2023-03-22T08:13:58;5.03;;;3.70;;
62711;SDS011;48772;55.586;37.730;2023-03-22T08:16:24;3.55;;;3.25;;
62711;SDS011;48772;55.586;37.730;2023-03-22T08:18:50;5.78;;;3.55;;
62711;SDS011;48772;55.586;37.730;2023-03-22T08:21:16;4.10;;;3.70;;
62711;SDS011;48772;55.586;37.730;2023-03-22T08:23:54;6.28;;;3.45;;
62711;SDS011;48772;55.586;37.730;2023-03-22T08:26:38;3.78;;;3.47;;
62711;SDS011;48772;55.586;37.730;2023-03-22T08:29:13;4.88;;;4.07;;
62711;SDS011;48772;55.586;37.730;2023-03-22T08:31:43;4.57;;;3.47;;
62711;SDS011;48772;55.586;37.730;2023-03-22T08:34:09;3.47;;;3.13;;
62711;SDS011;48772;55.586;37.730;2023-03-22T08:36:36;4.80;;;4.00;;
62711;SDS011;48772;55.586;37.730;2023-03-22T08:39:03;4.50;;;4.10;;
62711;SDS011;48772;55.586;37.730;2023-03-22T08:41:39;5.55;;;4.70;;
62711;SDS011;48772;55.586;37.730;2023-03-22T08:44:05;6.15;;;4.70;;
62711;SDS011;48772;55.586;37.730;2023-03-22T08:46:33;10.05;;;5.28;;
62711;SDS011;48772;55.586;37.730;2023-03-22T08:49:00;5.32;;;4.72;;
62711;SDS011;48772;55.586;37.730;2023-03-22T08:51:52;5.03;;;4.05;;
62711;SDS011;48772;55.586;37.730;2023-03-22T08:54:39;8.18;;;5.82;;
62711;SDS011;48772;55.586;37.730;2023-03-22T08:57:25;4.90;;;3.88;;
62711;SDS011;48772;55.586;37.730;2023-03-22T09:00:16;4.85;;;4.03;;
62711;SDS011;48772;55.586;37.730;2023-03-22T09:02:53;4.53;;;2.60;;
62711;SDS011;48772;55.586;37.730;2023-03-22T09:05:19;8.80;;;3.92;;
62711;SDS011;48772;55.586;37.730;2023-03-22T09:07:45;2.00;;;1.80;;
62711;SDS011;48772;55.586;37.730;2023-03-22T09:10:21;1.95;;;1.85;;
62711;SDS011;48772;55.586;37.730;2023-03-22T09:12:48;2.30;;;2.10;;
62711;SDS011;48772;55.586;37.730;2023-03-22T09:15:14;2.17;;;1.98;;
62711;SDS011;48772;55.586;37.730;2023-03-22T09:17:44;1.65;;;1.55;;
62711;SDS011;48772;55.586;37.730;2023-03-22T09:20:09;2.47;;;2.28;;
62711;SDS011;48772;55.586;37.730;2023-03-22T09:22:35;2.75;;;2.38;;
62711;SDS011;48772;55.586;37.730;2023-03-22T09:25:02;2.70;;;2.50;;
62711;SDS011;48772;55.586;37.730;2023-03-22T09:27:29;2.80;;;2.03;;
62711;SDS011;48772;55.586;37.730;2023-03-22T09:29:55;2.63;;;2.42;;
62711;SDS011;48772;55.586;37.730;2023-03-22T09:32:22;3.40;;;2.47;;
62711;SDS011;48772;55.586;37.730;2023-03-22T09:34:55;5.85;;;2.20;;
62711;SDS011;48772;55.586;37.730;2023-03-22T09:37:24;3.22;;;2.67;;
62711;SDS011;48772;55.586;37.730;2023-03-22T09:39:55;3.25;;;2.88;;
62711;SDS011;48772;55.586;37.730;2023-03-22T09:44:55;2.90;;;2.70;;
62711;SDS011;48772;55.586;37.730;2023-03-22T09:47:35;3.08;;;2.47;;
62711;SDS011;48772;55.586;37.730;2023-03-22T09:50:18;2.65;;;2.45;;
62711;SDS011;48772;55.586;37.730;2023-03-22T09:52:49;3.17;;;2.88;;
62711;SDS011;48772;55.586;37.730;2023-03-22T09:55:20;5.78;;;2.88;;
62711;SDS011;48772;55.586;37.730;2023-03-22T09:58:37;5.22;;;2.85;;
62711;SDS011;48772;55.586;37.730;2023-03-22T10:00:46;3.67;;;2.67;;
62711;SDS011;48772;55.586;37.730;2023-03-22T10:03:23;6.88;;;3.38;;
62711;SDS011;48772;55.586;37.730;2023-03-22T10:11:10;4.43;;;2.80;;
62711;SDS011;48772;55.586;37.730;2023-03-22T10:13:53;3.92;;;2.83;;
62711;SDS011;48772;55.586;37.730;2023-03-22T10:16:27;3.00;;;2.70;;
62711;SDS011;48772;55.586;37.730;2023-03-22T10:19:11;5.50;;;2.90;;
62711;SDS011;48772;55.586;37.730;2023-03-22T10:21:43;2.90;;;2.38;;
62711;SDS011;48772;55.586;37.730;2023-03-22T10:24:15;3.83;;;3.15;;
62711;SDS011;48772;55.586;37.730;2023-03-22T10:26:45;5.10;;;2.60;;
62711;SDS011;48772;55.586;37.730;2023-03-22T10:29:24;2.63;;;2.42;;
62711;SDS011;48772;55.586;37.730;2023-03-22T10:31:57;2.70;;;2.47;;
62711;SDS011;48772;55.586;37.730;2023-03-22T10:34:44;4.18;;;3.78;;
62711;SDS011;48772;55.586;37.730;2023-03-22T10:37:54;5.45;;;2.75;;
62711;SDS011;48772;55.586;37.730;2023-03-22T10:40:04;2.05;;;1.85;;
62711;SDS011;48772;55.586;37.730;2023-03-22T10:42:31;2.28;;;2.08;;
62711;SDS011;48772;55.586;37.730;2023-03-22T10:45:03;4.75;;;2.40;;
62711;SDS011;48772;55.586;37.730;2023-03-22T10:47:34;2.92;;;2.22;;
62711;SDS011;48772;55.586;37.730;2023-03-22T10:50:06;2.95;;;2.13;;
62711;SDS011;48772;55.586;37.730;2023-03-22T10:53:23;2.30;;;2.10;;
62711;SDS011;48772;55.586;37.730;2023-03-22T10:55:42;2.53;;;1.92;;
62711;SDS011;48772;55.586;37.730;2023-03-22T10:58:13;2.03;;;1.85;;
62711;SDS011;48772;55.586;37.730;2023-03-22T11:00:50;2.28;;;2.05;;
62711;SDS011;48772;55.586;37.730;2023-03-22T11:03:32;5.63;;;2.00;;
62711;SDS011;48772;55.586;37.730;2023-03-22T11:11:18;3.20;;;2.00;;
62711;SDS011;48772;55.586;37.730;2023-03-22T11:14:34;2.60;;;1.58;;
62711;SDS011;48772;55.586;37.730;2023-03-22T11:16:58;2.03;;;1.55;;
62711;SDS011;48772;55.586;37.730;2023-03-22T11:19:27;2.38;;;1.70;;
62711;SDS011;48772;55.586;37.730;2023-03-22T11:21:58;1.60;;;1.50;;
62711;SDS011;48772;55.586;37.730;2023-03-22T11:24:25;2.65;;;1.85;;
62711;SDS011;48772;55.586;37.730;2023-03-22T11:27:01;2.58;;;2.10;;
62711;SDS011;48772;55.586;37.730;2023-03-22T11:29:43;2.13;;;1.90;;
62711;SDS011;48772;55.586;37.730;2023-03-22T11:32:44;2.88;;;1.98;;
62711;SDS011;48772;55.586;37.730;2023-03-22T11:35:10;1.67;;;1.58;;
62711;SDS011;48772;55.586;37.730;2023-03-22T11:37:52;1.85;;;1.60;;
62711;SDS011;48772;55.586;37.730;2023-03-22T11:40:23;2.90;;;2.40;;
62711;SDS011;48772;55.586;37.730;2023-03-22T11:42:52;4.45;;;1.50;;
62711;SDS011;48772;55.586;37.730;2023-03-22T11:45:26;0.82;;;0.82;;
62711;SDS011;48772;55.586;37.730;2023-03-22T11:47:55;0.82;;;0.82;;
62711;SDS011;48772;55.586;37.730;2023-03-22T11:50:28;1.15;;;1.05;;
62711;SDS011;48772;55.586;37.730;2023-03-22T11:52:55;1.15;;;0.93;;
62711;SDS011;48772;55.586;37.730;2023-03-22T11:55:21;1.20;;;1.10;;
62711;SDS011;48772;55.586;37.730;2023-03-22T11:57:48;3.40;;;1.65;;
62711;SDS011;48772;55.586;37.730;2023-03-22T12:05:17;2.08;;;1.85;;
62711;SDS011;48772;55.586;37.730;2023-03-22T12:07:44;1.80;;;1.70;;
62711;SDS011;48772;55.586;37.730;2023-03-22T12:10:17;3.05;;;2.13;;
62711;SDS011;48772;55.586;37.730;2023-03-22T12:13:04;3.45;;;2.00;;
62711;SDS011;48772;55.586;37.730;2023-03-22T12:15:42;2.17;;;1.80;;
62711;SDS011;48772;55.586;37.730;2023-03-22T12:18:18;2.20;;;2.00;;
62711;SDS011;48772;55.586;37.730;2023-03-22T12:20:52;2.35;;;1.88;;
62711;SDS011;48772;55.586;37.730;2023-03-22T12:23:24;4.30;;;2.53;;
62711;SDS011;48772;55.586;37.730;2023-03-22T12:28:21;1.60;;;1.50;;
62711;SDS011;48772;55.586;37.730;2023-03-22T12:30:52;3.90;;;2.53;;
62711;SDS011;48772;55.586;37.730;2023-03-22T12:33:27;1.70;;;1.60;;
62711;SDS011;48772;55.586;37.730;2023-03-22T12:36:00;1.93;;;1.37;;
62711;SDS011;48772;55.586;37.730;2023-03-22T12:41:46;2.25;;;1.70;;
62711;SDS011;48772;55.586;37.730;2023-03-22T12:46:48;1.52;;;1.42;;
62711;SDS011;48772;55.586;37.730;2023-03-22T12:49:29;3.95;;;1.50;;
62711;SDS011;48772;55.586;37.730;2023-03-22T12:52:29;1.45;;;1.35;;
62711;SDS011;48772;55.586;37.730;2023-03-22T12:54:56;1.90;;;1.30;;
62711;SDS011;48772;55.586;37.730;2023-03-22T12:57:24;1.52;;;1.23;;
62711;SDS011;48772;55.586;37.730;2023-03-22T12:59:51;1.65;;;1.40;;
62711;SDS011;48772;55.586;37.730;2023-03-22T13:02:25;4.85;;;1.70;;
62711;SDS011;48772;55.586;37.730;2023-03-22T13:04:55;3.63;;;2.50;;
62711;SDS011;48772;55.586;37.730;2023-03-22T13:21:16;7.28;;;3.55;;
62711;SDS011;48772;55.586;37.730;2023-03-22T13:29:22;1.60;;;1.23;;
62711;SDS011;48772;55.586;37.730;2023-03-22T13:32:04;1.17;;;1.15;;
62711;SDS011;48772;55.586;37.730;2023-03-22T13:34:54;4.28;;;1.65;;
62711;SDS011;48772;55.586;37.730;2023-03-22T13:37:28;1.88;;;1.40;;
62711;SDS011;48772;55.586;37.730;2023-03-22T13:39:59;3.60;;;2.10;;
62711;SDS011;48772;55.586;37.730;2023-03-22T13:42:37;1.50;;;1.40;;
62711;SDS011;48772;55.586;37.730;2023-03-22T13:45:07;2.30;;;1.60;;
62711;SDS011;48772;55.586;37.730;2023-03-22T13:50:18;1.50;;;1.40;;
62711;SDS011;48772;55.586;37.730;2023-03-22T13:52:53;1.77;;;1.60;;
62711;SDS011;48772;55.586;37.730;2023-03-22T14:01:01;1.33;;;1.23;;
62711;SDS011;48772;55.586;37.730;2023-03-22T14:03:47;3.55;;;1.40;;
62711;SDS011;48772;55.586;37.730;2023-03-22T14:06:17;1.95;;;1.40;;
62711;SDS011;48772;55.586;37.730;2023-03-22T14:08:48;5.32;;;2.42;;
62711;SDS011;48772;55.586;37.730;2023-03-22T14:14:15;2.63;;;1.90;;
62711;SDS011;48772;55.586;37.730;2023-03-22T14:16:48;2.15;;;1.95;;
62711;SDS011;48772;55.586;37.730;2023-03-22T14:19:21;2.92;;;1.75;;
62711;SDS011;48772;55.586;37.730;2023-03-22T14:21:59;5.85;;;2.35;;
62711;SDS011;48772;55.586;37.730;2023-03-22T14:24:30;9.88;;;5.35;;
62711;SDS011;48772;55.586;37.730;2023-03-22T14:27:00;8.60;;;4.60;;
62711;SDS011;48772;55.586;37.730;2023-03-22T14:29:27;8.23;;;4.22;;
62711;SDS011;48772;55.586;37.730;2023-03-22T14:32:12;5.35;;;3.67;;
62711;SDS011;48772;55.586;37.730;2023-03-22T14:34:41;2.37;;;1.90;;
62711;SDS011;48772;55.586;37.730;2023-03-22T14:37:11;14.48;;;8.07;;
62711;SDS011;48772;55.586;37.730;2023-03-22T14:39:39;9.25;;;6.18;;
62711;SDS011;48772;55.586;37.730;2023-03-22T14:42:13;3.15;;;1.63;;
62711;SDS011;48772;55.586;37.730;2023-03-22T14:44:40;7.25;;;3.75;;
62711;SDS011;48772;55.586;37.730;2023-03-22T14:47:14;3.03;;;2.30;;
62711;SDS011;48772;55.586;37.730;2023-03-22T14:52:31;3.33;;;2.42;;
62711;SDS011;48772;55.586;37.730;2023-03-22T14:54:58;5.47;;;2.70;;
62711;SDS011;48772;55.586;37.730;2023-03-22T14:57:27;3.55;;;2.10;;
62711;SDS011;48772;55.586;37.730;2023-03-22T14:59:55;2.30;;;1.92;;
62711;SDS011;48772;55.586;37.730;2023-03-22T15:02:26;3.08;;;2.03;;
62711;SDS011;48772;55.586;37.730;2023-03-22T15:04:59;3.05;;;2.10;;
62711;SDS011;48772;55.586;37.730;2023-03-22T15:07:26;3.08;;;2.40;;
62711;SDS011;48772;55.586;37.730;2023-03-22T15:09:52;4.47;;;1.98;;
62711;SDS011;48772;55.586;37.730;2023-03-22T15:12:34;3.75;;;2.03;;
62711;SDS011;48772;55.586;37.730;2023-03-22T15:14:59;2.75;;;1.92;;
62711;SDS011;48772;55.586;37.730;2023-03-22T15:17:25;3.10;;;2.45;;
62711;SDS011;48772;55.586;37.730;2023-03-22T15:19:53;4.10;;;2.20;;
62711;SDS011;48772;55.586;37.730;2023-03-22T15:22:19;3.40;;;2.25;;
62711;SDS011;48772;55.586;37.730;2023-03-22T15:27:18;4.20;;;2.35;;
62711;SDS011;48772;55.586;37.730;2023-03-22T15:29:46;3.78;;;2.33;;
62711;SDS011;48772;55.586;37.730;2023-03-22T15:32:17;5.75;;;2.63;;
62711;SDS011;48772;55.586;37.730;2023-03-22T15:34:45;4.28;;;2.65;;
62711;SDS011;48772;55.586;37.730;2023-03-22T15:37:30;6.18;;;2.70;;
62711;SDS011;48772;55.586;37.730;2023-03-22T15:39:58;7.32;;;2.50;;
62711;SDS011;48772;55.586;37.730;2023-03-22T15:42:33;3.83;;;2.42;;
62711;SDS011;48772;55.586;37.730;2023-03-22T15:45:07;3.97;;;2.60;;
62711;SDS011;48772;55.586;37.730;2023-03-22T15:47:42;4.53;;;3.08;;
62711;SDS011;48772;55.586;37.730;2023-03-22T15:50:08;11.50;;;3.22;;
62711;SDS011;48772;55.586;37.730;2023-03-22T15:52:34;4.38;;;3.15;;
62711;SDS011;48772;55.586;37.730;2023-03-22T15:55:13;4.07;;;3.08;;
62711;SDS011;48772;55.586;37.730;2023-03-22T16:02:59;4.63;;;3.20;;
62711;SDS011;48772;55.586;37.730;2023-03-22T16:05:26;4.70;;;2.75;;
62711;SDS011;48772;55.586;37.730;2023-03-22T16:07:52;6.22;;;2.70;;
62711;SDS011;48772;55.586;37.730;2023-03-22T16:10:23;4.63;;;2.72;;
62711;SDS011;48772;55.586;37.730;2023-03-22T16:12:50;3.55;;;2.55;;
62711;SDS011;48772;55.586;37.730;2023-03-22T16:15:17;5.82;;;2.92;;
62711;SDS011;48772;55.586;37.730;2023-03-22T16:17:45;4.20;;;2.65;;
62711;SDS011;48772;55.586;37.730;2023-03-22T16:20:12;3.05;;;2.30;;
62711;SDS011;48772;55.586;37.730;2023-03-22T16:22:39;8.10;;;3.15;;
62711;SDS011;48772;55.586;37.730;2023-03-22T16:25:21;6.40;;;3.40;;
62711;SDS011;48772;55.586;37.730;2023-03-22T16:27:50;3.53;;;2.53;;
62711;SDS011;48772;55.586;37.730;2023-03-22T16:30:16;14.13;;;3.35;;
62711;SDS011;48772;55.586;37.730;2023-03-22T16:32:43;5.97;;;3.05;;
62711;SDS011;48772;55.586;37.730;2023-03-22T16:35:17;9.68;;;3.40;;
62711;SDS011;48772;55.586;37.730;2023-03-22T16:37:45;5.10;;;2.97;;
62711;SDS011;48772;55.586;37.730;2023-03-22T16:40:16;5.53;;;3.22;;
62711;SDS011;48772;55.586;37.730;2023-03-22T16:42:44;4.35;;;2.58;;
62711;SDS011;48772;55.586;37.730;2023-03-22T16:45:24;4.28;;;2.70;;
62711;SDS011;48772;55.586;37.730;2023-03-22T16:47:53;4.60;;;3.00;;
62711;SDS011;48772;55.586;37.730;2023-03-22T16:50:21;4.43;;;3.20;;
62711;SDS011;48772;55.586;37.730;2023-03-22T16:52:49;7.38;;;3.33;;